Time;durP1;ratioP1;P1;durP2;ratioP2;P2;SDS_P1;SDS_P2;PMS_P1;PMS_P2;Temp;Humidity;BMP_temperature;BMP_pressure;BME280_temperature;BME280_humidity;BME280_pressure;Samples;Min_cycle;Max_cycle;Signal;HPM_P1;HPM_P2
2022/04/02 00:00:06;;;;;;;10.43;8.20;;;;;;;7.61;86.21;93617.35;1777486;81;21057;-59
2022/04/02 00:02:37;;;;;;;10.93;8.55;;;;;;;7.57;86.67;93611.38;1777543;81;21558;-59
2022/04/02 00:05:04;;;;;;;10.73;6.80;;;;;;;7.62;86.36;93617.77;1777674;81;21484;-59
2022/04/02 00:07:31;;;;;;;10.67;7.53;;;;;;;7.62;85.81;93610.75;1777855;81;21416;-60
2022/04/02 00:09:57;;;;;;;14.30;9.00;;;;;;;7.58;86.42;93612.65;1777424;80;21017;-59
2022/04/02 00:12:24;;;;;;;9.33;7.37;;;;;;;7.62;86.32;93615.15;1734302;81;21444;-59
2022/04/02 00:14:53;;;;;;;10.73;7.63;;;;;;;7.58;86.12;93613.08;1777817;81;21492;-59
2022/04/02 00:17:20;;;;;;;7.27;5.73;;;;;;;7.61;85.94;93610.80;1777771;80;21013;-59
2022/04/02 00:19:46;;;;;;;13.13;8.53;;;;;;;7.64;85.82;93612.02;1777555;81;20970;-60
2022/04/02 00:22:13;;;;;;;13.00;10.00;;;;;;;7.64;85.62;93606.30;1777877;80;21401;-60
2022/04/02 00:24:39;;;;;;;11.13;8.23;;;;;;;7.66;85.69;93595.29;1777678;80;20993;-59
2022/04/02 00:27:07;;;;;;;12.33;8.20;;;;;;;7.74;85.86;93597.61;1777771;81;20954;-59
2022/04/02 00:29:34;;;;;;;12.80;9.03;;;;;;;7.73;85.48;93601.13;1777721;80;20998;-59
2022/04/02 00:32:01;;;;;;;12.60;9.33;;;;;;;7.76;85.69;93599.69;1777456;81;21021;-59
2022/04/02 00:34:27;;;;;;;13.50;9.53;;;;;;;7.77;85.90;93607.52;1777713;80;21033;-59
2022/04/02 00:36:54;;;;;;;12.03;9.53;;;;;;;7.83;85.88;93601.16;1777482;80;21038;-59
2022/04/02 00:39:21;;;;;;;15.17;9.00;;;;;;;7.86;85.72;93605.00;1777232;80;21045;-60
2022/04/02 00:41:48;;;;;;;10.17;8.30;;;;;;;7.91;85.75;93596.48;1777814;81;21006;-59
2022/04/02 00:44:17;;;;;;;10.97;8.70;;;;;;;7.94;85.14;93601.59;1780732;80;21025;-59
2022/04/02 00:46:45;;;;;;;12.17;9.20;;;;;;;7.92;84.98;93594.70;1787463;80;21519;-60
2022/04/02 00:49:14;;;;;;;11.60;8.77;;;;;;;7.94;85.21;93587.16;1787575;80;21010;-59
2022/04/02 00:51:44;;;;;;;12.53;9.27;;;;;;;7.92;85.30;93582.42;1787614;80;21063;-60
2022/04/02 00:54:15;;;;;;;12.87;9.20;;;;;;;7.95;85.40;93594.11;1787501;80;21013;-59
2022/04/02 00:56:43;;;;;;;12.47;8.83;;;;;;;7.97;85.23;93586.17;1787768;80;21049;-60
2022/04/02 00:59:12;;;;;;;11.63;8.87;;;;;;;7.93;85.16;93583.27;1787634;80;21006;-59
2022/04/02 01:01:39;;;;;;;13.33;10.17;;;;;;;7.91;85.06;93583.78;1787579;80;21096;-60
2022/04/02 01:04:08;;;;;;;15.17;11.60;;;;;;;7.95;85.14;93582.75;1787828;80;21549;-59
2022/04/02 01:06:40;;;;;;;16.80;12.40;;;;;;;7.94;85.06;93585.00;1787170;80;21479;-59
2022/04/02 01:09:09;;;;;;;16.00;13.17;;;;;;;7.84;85.05;93586.25;1787447;80;21006;-60
2022/04/02 01:11:45;;;;;;;16.57;12.93;;;;;;;7.67;85.32;93591.73;1787558;80;21111;-59
2022/04/02 01:14:12;;;;;;;17.43;12.30;;;;;;;7.50;86.32;93595.47;1787634;80;21013;-59
2022/04/02 01:16:40;;;;;;;19.23;13.50;;;;;;;7.40;86.37;93596.74;1787732;80;21058;-60
2022/04/02 01:19:09;;;;;;;19.83;14.77;;;;;;;7.29;86.71;93591.45;1787364;80;21002;-60
2022/04/02 01:21:36;;;;;;;18.20;13.20;;;;;;;7.22;86.83;93600.46;1787554;80;20958;-59
2022/04/02 01:24:11;;;;;;;18.60;13.30;;;;;;;7.13;87.24;93602.98;1785248;80;21001;-60
2022/04/02 01:26:38;;;;;;;19.60;14.13;;;;;;;7.10;87.75;93608.31;1787837;80;20993;-59
2022/04/02 01:29:07;;;;;;;18.57;13.10;;;;;;;7.09;87.74;93611.87;1784732;80;21034;-59
2022/04/02 01:31:35;;;;;;;20.07;14.10;;;;;;;7.05;88.17;93611.56;1786748;80;21024;-59
2022/04/02 01:34:02;;;;;;;20.23;14.53;;;;;;;6.99;88.62;93609.65;1787320;80;21060;-59
2022/04/02 01:36:30;;;;;;;20.07;14.17;;;;;;;6.90;88.93;93605.14;1787624;80;20954;-60
2022/04/02 01:38:59;;;;;;;18.07;13.37;;;;;;;6.93;88.69;93606.80;1786170;80;20994;-59
2022/04/02 01:41:27;;;;;;;18.00;13.70;;;;;;;7.01;88.38;93619.63;1787621;80;21459;-60
2022/04/02 01:43:55;;;;;;;18.33;13.43;;;;;;;7.00;88.50;93620.06;1787072;80;21080;-59
2022/04/02 01:46:21;;;;;;;20.00;14.00;;;;;;;6.98;88.65;93619.28;1777810;81;21037;-60
2022/04/02 01:48:50;;;;;;;22.23;14.00;;;;;;;6.94;88.75;93621.14;1777698;81;21022;-59
2022/04/02 01:51:17;;;;;;;19.37;14.17;;;;;;;6.90;88.82;93626.55;1777300;81;21049;-59
2022/04/02 01:53:44;;;;;;;19.80;14.03;;;;;;;6.91;88.70;93633.06;1777537;81;21010;-59
2022/04/02 01:56:12;;;;;;;20.13;13.33;;;;;;;6.89;88.80;93642.74;1777670;81;20975;-59
2022/04/02 01:58:42;;;;;;;22.57;13.97;;;;;;;6.87;89.02;93634.07;1775387;81;20987;-60
2022/04/02 02:01:10;;;;;;;19.37;13.27;;;;;;;6.86;89.09;93633.69;1777759;80;21041;-59
2022/04/02 02:03:38;;;;;;;20.53;14.43;;;;;;;6.82;89.07;93633.38;1777425;81;21006;-59
2022/04/02 02:06:04;;;;;;;21.57;14.23;;;;;;;6.84;89.12;93638.58;1777666;80;21010;-59
2022/04/02 02:08:32;;;;;;;19.40;13.27;;;;;;;6.88;88.92;93635.80;1777626;81;21034;-60
2022/04/02 02:11:04;;;;;;;19.87;13.50;;;;;;;6.86;88.86;93639.39;1775768;81;21480;-59
2022/04/02 02:13:44;;;;;;;20.13;12.90;;;;;;;6.78;89.25;93635.73;1776500;81;21487;-60
2022/04/02 02:16:13;;;;;;;19.13;12.70;;;;;;;6.70;89.44;93642.98;1776825;81;21034;-60
2022/04/02 02:18:40;;;;;;;17.43;12.33;;;;;;;6.76;89.34;93649.80;1777693;80;21017;-59
2022/04/02 02:21:07;;;;;;;19.93;13.73;;;;;;;6.70;89.41;93631.19;1777423;81;20987;-59
2022/04/02 02:23:34;;;;;;;22.67;14.70;;;;;;;6.72;89.24;93626.75;1777557;80;20977;-60
2022/04/02 02:26:01;;;;;;;21.80;13.80;;;;;;;6.74;89.20;93635.42;1777350;80;21018;-60
2022/04/02 02:28:27;;;;;;;18.90;13.37;;;;;;;6.74;89.27;93639.36;1777762;81;21045;-59
2022/04/02 02:30:55;;;;;;;19.80;13.13;;;;;;;6.68;89.42;93639.13;1777645;80;20998;-59
2022/04/02 02:36:07;;;;;;;18.43;11.77;;;;;;;6.63;89.45;93646.29;1777739;80;20974;-59
2022/04/02 02:38:48;;;;;;;19.13;12.67;;;;;;;6.59;89.68;93645.98;1774492;81;20959;-59
2022/04/02 02:41:19;;;;;;;19.33;12.67;;;;;;;6.61;89.56;93649.88;1749666;81;21041;-60
2022/04/02 02:43:48;;;;;;;16.93;12.00;;;;;;;6.62;89.55;93649.80;1778179;80;21045;-60
2022/04/02 02:46:18;;;;;;;18.43;11.83;;;;;;;6.59;89.48;93648.60;1782949;80;21498;-59
2022/04/02 02:48:46;;;;;;;21.07;12.50;;;;;;;6.53;89.61;93650.14;1787679;80;21128;-59
2022/04/02 02:51:14;;;;;;;19.10;12.77;;;;;;;6.50;89.72;93652.41;1787679;80;21551;-60
2022/04/02 02:53:44;;;;;;;17.67;12.17;;;;;;;6.50;89.58;93645.86;1787849;80;21052;-59
2022/04/02 02:56:11;;;;;;;16.43;11.60;;;;;;;6.48;89.66;93650.29;1787814;80;21511;-59
2022/04/02 02:58:38;;;;;;;17.63;11.13;;;;;;;6.46;89.60;93648.17;1787922;80;21005;-59
2022/04/02 03:01:05;;;;;;;14.87;10.80;;;;;;;6.41;89.65;93647.47;1787755;80;21796;-59
2022/04/02 03:03:32;;;;;;;16.57;11.40;;;;;;;6.37;89.61;93648.47;1787839;80;20985;-59
2022/04/02 03:05:59;;;;;;;17.17;10.23;;;;;;;6.36;89.73;93649.84;1752257;80;21018;-59
2022/04/02 03:08:27;;;;;;;15.23;10.10;;;;;;;6.28;89.84;93654.03;1751992;80;21467;-60
2022/04/02 03:10:57;;;;;;;14.67;9.63;;;;;;;6.29;89.76;93654.42;1787386;80;21057;-60
2022/04/02 03:13:27;;;;;;;12.47;8.70;;;;;;;6.24;89.74;93659.81;1787756;80;21072;-59
2022/04/02 03:15:55;;;;;;;14.53;10.13;;;;;;;6.24;89.54;93653.27;1786309;80;21037;-60
2022/04/02 03:18:22;;;;;;;13.63;9.77;;;;;;;6.29;89.62;93660.52;1787922;80;20954;-60
2022/04/02 03:20:50;;;;;;;13.80;10.10;;;;;;;6.39;89.58;93653.20;1787310;80;21061;-59
2022/04/02 03:23:21;;;;;;;13.20;9.70;;;;;;;6.52;89.68;93657.58;1787505;80;21057;-60
2022/04/02 03:25:48;;;;;;;12.43;7.93;;;;;;;6.65;89.41;93655.39;1787671;80;21463;-59
2022/04/02 03:28:16;;;;;;;12.97;8.67;;;;;;;6.69;88.59;93651.77;1787542;80;21073;-59
2022/04/02 03:30:42;;;;;;;13.33;9.70;;;;;;;6.65;88.00;93654.08;1787648;80;21006;-59
2022/04/02 03:33:10;;;;;;;13.70;9.77;;;;;;;6.73;88.03;93658.63;1787683;80;20997;-59
2022/04/02 03:35:37;;;;;;;14.40;10.87;;;;;;;6.69;87.31;93663.56;1787414;80;21016;-59
2022/04/02 03:38:05;;;;;;;15.10;10.93;;;;;;;6.67;87.19;93662.75;1787498;80;21020;-60
2022/04/02 03:40:31;;;;;;;12.90;9.53;;;;;;;6.63;86.91;93663.33;1787697;80;21499;-59
2022/04/02 03:42:58;;;;;;;11.60;8.67;;;;;;;6.64;87.17;93672.03;1787579;80;21010;-59
2022/04/02 03:45:26;;;;;;;14.57;9.83;;;;;;;6.66;86.95;93672.38;1785550;80;21092;-60
2022/04/02 03:47:55;;;;;;;13.87;9.27;;;;;;;6.60;86.91;93675.23;1787989;80;21052;-59
2022/04/02 03:50:22;;;;;;;11.53;8.47;;;;;;;6.65;87.30;93676.36;1787718;80;20974;-60
2022/04/02 03:52:50;;;;;;;10.33;7.73;;;;;;;6.72;87.33;93678.70;1787562;80;21004;-59
2022/04/02 03:55:19;;;;;;;19.37;11.10;;;;;;;6.70;86.66;93687.53;1787122;80;21042;-60
2022/04/02 03:57:49;;;;;;;18.23;10.43;;;;;;;6.70;86.67;93684.48;1787678;80;21136;-60
2022/04/02 04:00:18;;;;;;;15.03;10.07;;;;;;;6.67;86.42;93687.19;1756711;80;21005;-59
2022/04/02 04:02:47;;;;;;;21.83;13.07;;;;;;;6.61;86.76;93682.17;1787143;80;21093;-59
2022/04/02 04:05:15;;;;;;;21.77;13.87;;;;;;;6.64;87.07;93684.67;1787264;80;21112;-59
2022/04/02 04:07:44;;;;;;;14.93;10.40;;;;;;;6.60;87.24;93683.52;1787864;80;21492;-59
2022/04/02 04:10:11;;;;;;;15.27;9.43;;;;;;;6.54;87.12;93685.90;1787654;80;20966;-60
2022/04/02 04:12:38;;;;;;;13.73;9.10;;;;;;;6.52;86.91;93682.47;1787370;80;21032;-60
2022/04/02 04:15:08;;;;;;;14.00;9.33;;;;;;;6.52;86.72;93687.70;1788034;80;21052;-59
2022/04/02 04:17:35;;;;;;;13.67;9.60;;;;;;;6.52;86.73;93686.86;1787575;80;21483;-59
2022/04/02 04:20:04;;;;;;;14.17;10.30;;;;;;;6.52;86.84;93686.86;1788235;80;21052;-60
2022/04/02 04:22:31;;;;;;;14.87;9.37;;;;;;;6.57;86.99;93694.11;1787628;80;20966;-59
2022/04/02 04:25:00;;;;;;;15.27;10.13;;;;;;;6.55;86.84;93694.18;1787425;80;21010;-60
2022/04/02 04:27:26;;;;;;;13.57;9.00;;;;;;;6.56;86.95;93700.27;1752299;80;21025;-59
2022/04/02 04:29:53;;;;;;;16.30;10.23;;;;;;;6.60;87.06;93707.10;1787811;80;21471;-60
2022/04/02 04:32:20;;;;;;;15.43;9.93;;;;;;;6.58;86.80;93702.39;1787329;80;21025;-59
2022/04/02 04:34:47;;;;;;;14.33;9.33;;;;;;;6.59;86.88;93702.31;1787760;80;21024;-59
2022/04/02 04:37:14;;;;;;;15.20;9.97;;;;;;;6.64;86.77;93704.33;1787576;80;21006;-60
2022/04/02 04:39:41;;;;;;;15.40;10.20;;;;;;;6.62;86.66;93703.52;1782254;80;21021;-60
2022/04/02 04:42:09;;;;;;;14.50;9.77;;;;;;;6.58;86.78;93705.02;1787588;80;21013;-59
2022/04/02 04:44:38;;;;;;;15.13;10.10;;;;;;;6.61;86.76;93708.83;1787576;80;21022;-59
2022/04/02 04:47:07;;;;;;;16.80;10.57;;;;;;;6.58;86.63;93708.94;1792785;80;21036;-59
2022/04/02 04:49:35;;;;;;;15.73;10.53;;;;;;;6.48;86.91;93713.16;1792875;80;21344;-59
2022/04/02 04:52:05;;;;;;;17.97;10.97;;;;;;;6.42;86.95;93716.43;1792954;80;21486;-59
2022/04/02 04:54:33;;;;;;;16.53;11.93;;;;;;;6.34;87.40;93721.06;1793187;79;21005;-60
2022/04/02 04:57:02;;;;;;;15.87;11.53;;;;;;;6.25;87.61;93719.61;1792695;80;21041;-59
2022/04/02 04:59:29;;;;;;;17.13;10.37;;;;;;;6.22;87.98;93712.72;1792919;80;21530;-59
2022/04/02 05:01:56;;;;;;;17.30;11.60;;;;;;;6.20;88.07;93724.11;1793256;80;21034;-59
2022/04/02 05:04:23;;;;;;;16.47;10.93;;;;;;;6.20;88.09;93726.73;1792859;80;21522;-59
2022/04/02 05:06:53;;;;;;;16.97;11.13;;;;;;;6.21;88.11;93731.08;1793275;79;21025;-59
2022/04/02 05:09:20;;;;;;;16.27;10.57;;;;;;;6.17;88.14;93728.99;1790481;80;20965;-59
2022/04/02 05:11:49;;;;;;;16.70;10.70;;;;;;;6.18;88.28;93738.58;1792966;79;21009;-60
2022/04/02 05:14:17;;;;;;;16.17;10.17;;;;;;;6.22;88.21;93739.33;1793099;80;21052;-60
2022/04/02 05:16:45;;;;;;;17.93;11.43;;;;;;;6.18;88.17;93737.73;1793172;80;20994;-59
2022/04/02 05:19:13;;;;;;;18.67;12.57;;;;;;;6.18;88.16;93745.59;1793187;79;20978;-59
2022/04/02 05:21:41;;;;;;;15.30;10.57;;;;;;;6.19;88.10;93745.52;1793203;80;21463;-59
2022/04/02 05:24:09;;;;;;;20.07;13.07;;;;;;;6.17;88.09;93742.09;1792791;79;21045;-59
2022/04/02 05:26:38;;;;;;;20.73;12.90;;;;;;;6.19;88.09;93747.29;1792892;80;20977;-60
2022/04/02 05:29:08;;;;;;;18.90;12.23;;;;;;;6.19;88.00;93745.98;1792801;80;21049;-60
2022/04/02 05:31:34;;;;;;;16.33;11.47;;;;;;;6.18;87.87;93754.30;1793251;80;21482;-60
2022/04/02 05:34:01;;;;;;;15.53;10.53;;;;;;;6.20;87.68;93762.97;1792864;79;21091;-61
2022/04/02 05:36:27;;;;;;;16.97;10.20;;;;;;;6.24;87.56;93759.33;1793015;80;21020;-59
2022/04/02 05:38:54;;;;;;;18.57;11.37;;;;;;;6.25;87.46;93762.37;1793293;79;20998;-59
2022/04/02 05:41:21;;;;;;;21.07;13.77;;;;;;;6.23;87.54;93760.70;1793230;79;20962;-59
2022/04/02 05:43:48;;;;;;;15.20;9.47;;;;;;;6.26;87.38;93756.67;1793191;80;21499;-59
2022/04/02 05:46:15;;;;;;;17.27;11.73;;;;;;;6.25;87.32;93758.90;1794575;80;21085;-59
2022/04/02 05:48:41;;;;;;;17.73;9.70;;;;;;;6.33;87.22;93759.97;1796319;79;21452;-59
2022/04/02 05:51:09;;;;;;;17.53;10.90;;;;;;;6.37;86.95;93758.48;1796006;80;21025;-59
2022/04/02 05:53:36;;;;;;;15.77;9.77;;;;;;;6.42;86.72;93755.27;1796176;80;21041;-59
2022/04/02 05:56:04;;;;;;;15.33;9.57;;;;;;;6.44;86.41;93756.08;1796109;79;21001;-59
2022/04/02 05:58:30;;;;;;;15.20;10.03;;;;;;;6.52;86.15;93757.59;1796360;80;21000;-60
2022/04/02 06:00:57;;;;;;;13.20;8.90;;;;;;;6.59;86.11;93764.36;1795979;80;20986;-59
2022/04/02 06:03:24;;;;;;;14.70;9.60;;;;;;;6.71;86.13;93759.57;1796395;79;20977;-59
2022/04/02 06:05:51;;;;;;;13.40;8.73;;;;;;;6.87;85.97;93760.36;1796327;80;20997;-60
2022/04/02 06:08:18;;;;;;;13.67;9.00;;;;;;;7.02;85.62;93760.30;1796219;80;21463;-60
2022/04/02 06:10:45;;;;;;;16.83;9.80;;;;;;;7.10;84.73;93752.55;1795720;80;20989;-60
2022/04/02 06:13:13;;;;;;;14.83;9.20;;;;;;;7.17;83.81;93751.05;1796298;80;21475;-59
2022/04/02 06:15:39;;;;;;;12.33;8.60;;;;;;;7.14;83.67;93751.55;1796374;80;21017;-59
2022/04/02 06:18:07;;;;;;;14.47;8.80;;;;;;;7.18;83.46;93747.05;1796243;80;21068;-59
2022/04/02 06:20:34;;;;;;;15.60;9.47;;;;;;;7.17;83.08;93754.52;1796372;80;21045;-59
2022/04/02 06:23:01;;;;;;;14.40;9.27;;;;;;;7.24;83.30;93748.16;1796396;79;21021;-59
2022/04/02 06:25:28;;;;;;;13.57;9.17;;;;;;;7.26;82.86;93750.73;1796402;80;21045;-60
2022/04/02 06:27:54;;;;;;;15.00;9.60;;;;;;;7.22;82.88;93755.68;1796500;80;20953;-59
2022/04/02 06:30:22;;;;;;;16.40;9.43;;;;;;;7.21;83.07;93762.70;1796249;79;21013;-60
2022/04/02 06:32:48;;;;;;;13.53;9.07;;;;;;;7.24;83.11;93752.09;1796673;80;20996;-59
2022/04/02 06:35:15;;;;;;;16.57;9.20;;;;;;;7.26;82.95;93755.52;1796044;80;21013;-59
2022/04/02 06:37:42;;;;;;;14.87;8.57;;;;;;;7.41;82.95;93758.48;1796129;79;21021;-59
2022/04/02 06:40:10;;;;;;;13.43;8.83;;;;;;;7.50;82.31;93764.73;1796397;79;21007;-60
2022/04/02 06:42:37;;;;;;;11.43;7.67;;;;;;;7.52;81.62;93765.08;1796329;80;20978;-59
2022/04/02 06:45:07;;;;;;;12.77;7.03;;;;;;;7.59;81.55;93768.34;1796375;79;21045;-59
2022/04/02 06:47:34;;;;;;;10.23;7.23;;;;;;;7.73;80.49;93762.11;1796419;80;21017;-59
2022/04/02 06:50:15;;;;;;;10.70;7.20;;;;;;;7.95;81.76;93764.80;1796197;80;21028;-60
2022/04/02 06:52:44;;;;;;;11.77;6.40;;;;;;;8.20;79.98;93763.87;1796255;80;21005;-59
2022/04/02 06:55:12;;;;;;;9.00;6.63;;;;;;;8.37;79.25;93764.53;1796356;79;21005;-60
2022/04/02 06:57:52;;;;;;;8.27;6.00;;;;;;;8.49;78.52;93773.25;1796297;80;20997;-59
2022/04/02 07:00:20;;;;;;;8.40;5.40;;;;;;;8.60;77.78;93772.84;1796012;80;20990;-60
2022/04/02 07:02:47;;;;;;;8.53;4.93;;;;;;;8.74;76.64;93774.44;1796469;80;20965;-60
2022/04/02 07:05:16;;;;;;;9.60;6.23;;;;;;;8.76;74.56;93772.61;1796283;80;21041;-63
2022/04/02 07:07:43;;;;;;;10.57;6.33;;;;;;;8.86;76.33;93777.89;1796898;79;21028;-60
2022/04/02 07:10:10;;;;;;;9.77;6.53;;;;;;;8.93;75.84;93780.28;1796530;80;21008;-59
2022/04/02 07:12:37;;;;;;;9.53;6.43;;;;;;;8.92;76.24;93779.87;1796056;80;21001;-59
2022/04/02 07:15:07;;;;;;;9.50;5.83;;;;;;;9.01;75.37;93776.87;1796313;79;21463;-60
2022/04/02 07:17:34;;;;;;;7.47;5.20;;;;;;;9.13;75.01;93768.93;1796468;79;20969;-60
2022/04/02 07:20:03;;;;;;;8.35;5.87;;;;;;;9.17;74.63;93774.00;1796340;80;21026;-59
2022/04/02 07:22:29;;;;;;;5.43;4.00;;;;;;;9.25;73.61;93776.31;1796339;80;21455;-59
2022/04/02 07:24:57;;;;;;;5.43;4.03;;;;;;;9.25;72.54;93777.16;1796051;80;20997;-59
2022/04/02 07:27:27;;;;;;;4.60;3.55;;;;;;;9.33;72.68;93772.88;1796238;80;21032;-60
2022/04/02 07:29:55;;;;;;;4.58;3.50;;;;;;;9.30;71.21;93774.34;1796522;80;21487;-59
2022/04/02 07:32:23;;;;;;;4.60;2.90;;;;;;;9.29;70.72;93785.77;1796239;80;21534;-59
2022/04/02 07:34:50;;;;;;;3.57;2.97;;;;;;;9.24;69.51;93789.90;1796068;79;20969;-59
2022/04/02 07:38:03;;;;;;;5.60;3.33;;;;;;;9.31;70.86;93790.51;1796332;80;21502;-59
2022/04/02 07:40:49;;;;;;;4.90;3.77;;;;;;;9.37;71.24;93799.45;1795793;80;21089;-61
2022/04/02 07:43:39;;;;;;;4.73;3.67;;;;;;;9.46;70.96;93799.53;1796518;80;20965;-60
2022/04/02 07:46:10;;;;;;;6.47;4.50;;;;;;;9.54;70.66;93802.68;1794022;80;21037;-59
2022/04/02 07:48:39;;;;;;;5.53;4.37;;;;;;;9.40;68.84;93801.09;1787594;80;21018;-60
2022/04/02 07:51:13;;;;;;;10.40;6.60;;;;;;;9.37;70.13;93802.55;1787691;80;21005;-59
2022/04/02 07:53:49;;;;;;;11.70;8.58;;;;;;;9.36;70.43;93806.11;1787618;80;20990;-60
2022/04/02 07:56:27;;;;;;;10.95;7.87;;;;;;;9.32;70.96;93806.68;1779226;80;21009;-59
2022/04/02 07:59:01;;;;;;;14.57;9.43;;;;;;;9.06;71.31;93809.95;1787187;80;21014;-59
2022/04/02 08:01:28;;;;;;;14.20;10.15;;;;;;;8.86;72.15;93820.44;1787990;80;21005;-59
2022/04/02 08:04:01;;;;;;;13.97;9.53;;;;;;;8.73;72.74;93827.11;1787764;80;21120;-60
2022/04/02 08:06:34;;;;;;;14.13;9.47;;;;;;;8.56;73.67;93826.45;1788120;80;21037;-59
2022/04/02 08:09:01;;;;;;;;;;;;;;;8.49;73.80;93832.86;1790375;80;21112;-59
2022/04/02 08:11:30;;;;;;;14.17;9.77;;;;;;;8.30;74.26;93830.91;1787310;80;20401;-59
2022/04/02 08:13:58;;;;;;;17.60;10.77;;;;;;;8.05;75.57;93835.37;1787953;80;20985;-60
2022/04/02 08:16:25;;;;;;;20.70;11.30;;;;;;;8.07;75.39;93832.24;1787502;80;21001;-60
2022/04/02 08:18:55;;;;;;;17.07;9.97;;;;;;;8.11;75.74;93836.45;1787681;80;21487;-59
2022/04/02 08:21:22;;;;;;;21.17;11.93;;;;;;;8.05;75.31;93835.37;1787829;80;20990;-60
2022/04/02 08:23:49;;;;;;;20.40;12.40;;;;;;;8.10;75.32;93832.12;1787260;80;21558;-59
2022/04/02 08:26:31;;;;;;;20.23;11.70;;;;;;;8.06;75.23;93837.92;1787625;80;21454;-59
2022/04/02 08:29:03;;;;;;;16.80;10.77;;;;;;;8.11;75.53;93838.61;1787232;80;20993;-59
2022/04/02 08:31:44;;;;;;;21.37;11.68;;;;;;;8.10;74.99;93842.17;1787900;80;21009;-59
2022/04/02 08:34:44;;;;;;;17.13;11.50;;;;;;;8.13;75.14;93842.51;1787629;80;21582;-59
2022/04/02 08:37:31;;;;;;;13.20;9.33;;;;;;;8.19;75.31;93848.41;1787938;80;20981;-59
2022/04/02 08:40:33;;;;;;;21.03;12.70;;;;;;;8.33;75.53;93849.65;1749611;80;21113;-59
2022/04/02 08:43:51;;;;;;;20.03;12.27;;;;;;;8.43;74.50;93846.63;1786627;80;20989;-59
2022/04/02 08:47:12;;;;;;;17.40;10.10;;;;;;;8.48;75.22;93844.30;1789676;80;21021;-60
2022/04/02 08:49:42;;;;;;;15.33;9.77;;;;;;;8.58;75.41;93831.19;1796450;80;21029;-59
2022/04/02 08:52:17;;;;;;;9.93;7.03;;;;;;;8.61;73.95;93838.49;1796243;80;21062;-59
2022/04/02 08:55:21;;;;;;;17.23;10.73;;;;;;;8.76;75.51;93825.20;1796357;80;21033;-60
2022/04/02 08:58:02;;;;;;;16.30;9.40;;;;;;;8.99;74.62;93832.63;1795928;79;21498;-59
2022/04/02 09:00:34;;;;;;;13.33;9.03;;;;;;;9.13;73.17;93836.88;1796382;80;21005;-59
2022/04/02 09:03:19;;;;;;;17.97;10.83;;;;;;;9.12;73.26;93835.14;1796774;80;21040;-60
2022/04/02 09:06:09;;;;;;;11.68;7.67;;;;;;;9.28;73.30;93843.28;1796461;79;20997;-59
2022/04/02 09:08:53;;;;;;;10.23;7.63;;;;;;;9.37;71.86;93834.98;1796246;80;21503;-59
2022/04/02 09:11:39;;;;;;;11.53;7.65;;;;;;;9.50;72.85;93830.93;1796050;79;21582;-60
2022/04/02 09:14:28;;;;;;;9.90;7.40;;;;;;;9.62;71.41;93837.42;1796636;80;21036;-60
2022/04/02 09:17:06;;;;;;;13.05;8.85;;;;;;;9.66;70.84;93837.70;1796458;80;20981;-59
2022/04/02 09:20:12;;;;;;;13.23;8.33;;;;;;;9.64;70.57;93835.59;1795226;80;20986;-60
2022/04/02 09:23:11;;;;;;;12.07;8.28;;;;;;;9.62;70.17;93840.53;1796516;80;21443;-59
2022/04/02 09:26:30;;;;;;;10.70;7.45;;;;;;;9.65;71.21;93843.91;1796096;79;21009;-60
2022/04/02 09:29:16;;;;;;;12.18;8.00;;;;;;;9.75;70.48;93840.38;1796197;80;21029;-60
2022/04/02 09:32:10;;;;;;;13.68;8.98;;;;;;;9.78;69.92;93844.66;1796522;80;21021;-60
2022/04/02 09:34:52;;;;;;;15.38;11.00;;;;;;;9.71;69.22;93847.58;1796256;80;20970;-59
2022/04/02 09:37:39;;;;;;;16.63;11.50;;;;;;;9.55;69.87;93842.59;1795188;80;21093;-60
2022/04/02 09:40:09;;;;;;;15.90;11.68;;;;;;;9.39;70.28;93855.98;1795160;80;20969;-59
2022/04/02 09:42:47;;;;;;;18.80;13.07;;;;;;;9.14;71.09;93859.63;1796142;79;20981;-60
2022/04/02 09:45:23;;;;;;;16.75;11.78;;;;;;;8.84;72.77;93854.70;1795934;79;20993;-59
2022/04/02 09:48:10;;;;;;;19.07;13.30;;;;;;;8.74;72.73;93864.30;1781159;80;21026;-60
2022/04/02 09:50:37;;;;;;;18.20;12.57;;;;;;;8.66;73.83;93869.87;1778127;80;21040;-60
2022/04/02 09:53:29;;;;;;;18.43;12.50;;;;;;;8.61;74.31;93870.50;1778137;80;21022;-59
2022/04/02 09:56:23;;;;;;;15.53;11.20;;;;;;;8.54;74.77;93869.91;1777819;80;21025;-59
2022/04/02 09:59:21;;;;;;;13.33;9.43;;;;;;;8.54;74.75;93873.84;1777869;80;21069;-59
2022/04/02 10:02:04;;;;;;;17.63;11.67;;;;;;;8.55;75.12;93878.64;1777915;80;21006;-60
2022/04/02 10:04:54;;;;;;;15.28;10.58;;;;;;;8.58;76.16;93886.40;1778152;81;21005;-60
2022/04/02 10:08:04;;;;;;;17.83;11.47;;;;;;;8.59;76.70;93886.36;1778050;80;20959;-60
2022/04/02 10:10:32;;;;;;;14.77;11.00;;;;;;;8.59;75.84;93889.41;1777962;81;21003;-60
2022/04/02 10:13:00;;;;;;;14.73;10.83;;;;;;;8.51;76.45;93883.60;1777663;80;21026;-59
2022/04/02 10:15:30;;;;;;;17.13;11.17;;;;;;;8.59;76.27;93890.73;1778117;81;21487;-60
2022/04/02 10:18:02;;;;;;;17.03;11.37;;;;;;;8.57;76.12;93889.95;1752335;81;20994;-60
2022/04/02 10:20:30;;;;;;;17.40;12.10;;;;;;;8.55;76.48;93895.73;1778010;80;21029;-60
2022/04/02 10:23:14;;;;;;;16.83;12.00;;;;;;;8.52;77.00;93895.38;1777430;80;21483;-60
2022/04/02 10:26:07;;;;;;;17.07;10.70;;;;;;;8.53;76.62;93896.23;1773920;81;21475;-59
2022/04/02 10:28:54;;;;;;;18.50;12.40;;;;;;;8.56;76.78;93897.42;1777808;80;21496;-59
2022/04/02 10:31:54;;;;;;;18.03;11.60;;;;;;;8.52;77.05;93898.02;1778127;80;20981;-59
2022/04/02 10:34:55;;;;;;;16.80;12.33;;;;;;;8.40;77.09;93901.09;1777591;81;20986;-59
2022/04/02 10:37:26;;;;;;;19.20;12.47;;;;;;;8.38;77.49;93903.73;1777765;81;21468;-59
2022/04/02 10:40:05;;;;;;;18.60;12.10;;;;;;;8.32;77.73;93903.13;1777849;80;21017;-59
2022/04/02 10:42:39;;;;;;;20.00;14.03;;;;;;;8.34;78.12;93907.84;1777957;80;21005;-59
2022/04/02 10:45:14;;;;;;;20.10;13.27;;;;;;;8.32;78.21;93905.76;1777862;81;21014;-60
2022/04/02 10:47:57;;;;;;;18.37;13.63;;;;;;;8.30;79.17;93897.91;1783789;80;21022;-59
2022/04/02 10:50:25;;;;;;;21.75;12.98;;;;;;;8.28;79.34;93905.45;1787777;80;21009;-59
2022/04/02 10:52:52;;;;;;;21.17;14.00;;;;;;;8.22;78.55;93912.66;1787712;80;21009;-60
2022/04/02 10:55:23;;;;;;;20.77;14.07;;;;;;;8.14;78.48;93906.83;1787685;80;21524;-59
2022/04/02 10:57:50;;;;;;;18.43;12.63;;;;;;;8.06;79.19;93912.79;1782652;80;21001;-59
2022/04/02 11:00:18;;;;;;;19.67;12.50;;;;;;;8.10;78.70;93926.23;1787662;80;21126;-59
2022/04/02 11:02:49;;;;;;;17.53;11.97;;;;;;;8.06;78.45;93914.56;1787693;80;21554;-59
2022/04/02 11:05:18;;;;;;;15.63;11.37;;;;;;;7.93;78.49;93922.88;1787842;80;21493;-60
2022/04/02 11:07:49;;;;;;;18.40;12.70;;;;;;;7.85;78.60;93934.11;1787783;80;21496;-59
2022/04/02 11:10:19;;;;;;;17.87;11.90;;;;;;;7.80;79.77;93927.70;1787854;80;21005;-60
2022/04/02 11:12:49;;;;;;;17.10;10.87;;;;;;;7.78;79.07;93936.08;1786710;80;21052;-59
2022/04/02 11:15:23;;;;;;;17.47;11.67;;;;;;;7.81;80.81;93941.67;1787709;80;21009;-60
2022/04/02 11:17:53;;;;;;;21.57;11.67;;;;;;;7.84;79.53;93941.59;1787738;80;20958;-60
2022/04/02 11:20:27;;;;;;;16.07;10.90;;;;;;;7.82;79.05;93940.78;1787728;80;21061;-59
2022/04/02 11:23:02;;;;;;;15.23;10.87;;;;;;;7.69;78.97;93940.81;1787546;80;21543;-59
2022/04/02 11:25:35;;;;;;;15.57;10.40;;;;;;;7.46;79.30;93936.30;1752113;80;21021;-59
2022/04/02 11:28:12;;;;;;;16.03;10.77;;;;;;;7.42;79.85;93940.81;1787616;80;20958;-60
2022/04/02 11:30:51;;;;;;;15.57;10.70;;;;;;;7.29;79.86;93946.06;1787849;80;21472;-59
2022/04/02 11:33:24;;;;;;;14.20;9.93;;;;;;;7.30;79.63;93937.27;1779411;80;21053;-60
2022/04/02 11:35:54;;;;;;;14.50;9.60;;;;;;;7.25;80.03;93943.97;1787712;80;21001;-59
2022/04/02 11:38:31;;;;;;;15.57;9.90;;;;;;;7.16;80.66;93942.98;1787818;80;21492;-59
2022/04/02 11:41:23;;;;;;;13.50;9.33;;;;;;;7.22;80.44;93947.16;1787698;80;21014;-59
2022/04/02 11:44:11;;;;;;;13.63;9.47;;;;;;;7.11;80.40;93952.76;1787718;80;21478;-60
2022/04/02 11:46:58;;;;;;;14.40;9.33;;;;;;;7.02;80.86;93950.41;1787618;80;20993;-60
2022/04/02 11:49:36;;;;;;;14.47;9.53;;;;;;;6.93;80.62;93956.36;1787875;80;20982;-59
2022/04/02 11:52:09;;;;;;;13.73;8.07;;;;;;;6.90;81.30;93952.95;1787779;80;21053;-59
2022/04/02 11:54:43;;;;;;;13.00;8.73;;;;;;;6.94;81.11;93949.34;1787741;80;21004;-59